Time;durP1;ratioP1;P1;durP2;ratioP2;P2;SDS_P1;SDS_P2;PMS_P1;PMS_P2;Temp;Humidity;BMP_temperature;BMP_pressure;BME280_temperature;BME280_humidity;BME280_pressure;Samples;Min_cycle;Max_cycle;Signal;HPM_P1;HPM_P2
2022/08/23 16:06:48;;;;;;;29.32;3.70;;;25.80;79.90;;;;;;242957;73;28013;-60
2022/08/23 16:07:14;;;;;;;18.32;3.37;;;26.00;73.60;;;;;;228457;82;18780;-60
2022/08/23 16:07:37;;;;;;;9.80;2.80;;;26.00;74.30;;;;;;230584;84;5191;-60
2022/08/23 16:08:00;;;;;;;15.43;3.00;;;26.00;74.40;;;;;;230447;84;3057;-61
2022/08/23 16:08:26;;;;;;;20.10;3.70;;;25.90;74.30;;;;;;236128;82;7442;-59
2022/08/23 16:08:51;;;;;;;17.35;3.65;;;25.90;74.30;;;;;;236924;82;7273;-59
2022/08/23 16:09:19;;;;;;;11.73;3.25;;;25.90;74.30;;;;;;240471;81;5233;-61
2022/08/23 16:19:48;;;;;;;7.78;2.58;;;25.90;74.40;;;;;;7673285;75;27397;-61
2022/08/23 16:29:50;;;;;;;9.88;3.83;;;26.00;74.40;;;;;;7482377;77;27172;-61
2022/08/23 16:39:53;;;;;;;16.32;3.02;;;26.10;72.80;;;;;;7606193;78;26308;-60
2022/08/23 16:49:55;;;;;;;14.13;2.70;;;26.10;71.80;;;;;;7603024;78;26238;-60
2022/08/23 16:59:58;;;;;;;13.18;3.10;;;26.10;72.30;;;;;;7602035;78;26246;-61
2022/08/23 17:10:00;;;;;;;18.12;3.37;;;26.10;72.30;;;;;;7595006;78;26291;-62
2022/08/23 17:20:05;;;;;;;32.90;4.60;;;26.20;71.90;;;;;;7604356;76;26274;-62
2022/08/23 17:30:13;;;;;;;17.50;3.40;;;26.30;71.40;;;;;;7619952;78;26842;-60
2022/08/23 17:40:17;;;;;;;20.85;4.10;;;26.20;72.50;;;;;;7597711;78;26725;-61
2022/08/23 17:50:20;;;;;;;18.42;3.02;;;26.20;72.20;;;;;;7612957;76;26303;-61
2022/08/23 18:00:23;;;;;;;19.17;3.42;;;26.20;72.90;;;;;;7626148;76;26274;-61
2022/08/23 18:10:26;;;;;;;19.62;3.55;;;26.20;73.80;;;;;;7625163;78;26317;-61
2022/08/23 18:20:29;;;;;;;14.25;3.30;;;26.20;74.20;;;;;;7598843;78;26560;-59
2022/08/23 18:30:34;;;;;;;5.28;2.50;;;26.20;74.50;;;;;;7586322;78;26281;-61
2022/08/23 18:40:44;;;;;;;8.75;2.92;;;26.20;75.40;;;;;;7558346;78;26303;-59
2022/08/23 18:50:41;;;;;;;9.80;2.87;;;26.20;75.70;;;;;;7540896;77;26827;-59
2022/08/23 19:00:44;;;;;;;12.85;3.33;;;26.20;76.00;;;;;;7538356;78;26283;-61
2022/08/23 19:10:47;;;;;;;12.18;3.35;;;26.20;76.30;;;;;;7564222;78;26297;-61
2022/08/23 19:20:49;;;;;;;13.75;2.92;;;26.10;76.20;;;;;;7610375;77;26761;-59
2022/08/23 19:30:52;;;;;;;5.87;2.92;;;26.10;76.10;;;;;;7620342;76;26293;-61
2022/08/23 19:40:55;;;;;;;8.70;2.75;;;26.10;76.30;;;;;;7617890;78;26234;-60
2022/08/23 19:50:57;;;;;;;6.60;2.77;;;26.00;76.70;;;;;;7571859;76;26347;-60
2022/08/23 20:01:00;;;;;;;7.05;2.62;;;26.00;77.10;;;;;;7495266;77;26409;-59
2022/08/23 20:11:02;;;;;;;6.78;3.08;;;26.00;77.30;;;;;;7495139;78;26433;-61
2022/08/23 20:21:05;;;;;;;6.25;2.40;;;26.00;77.70;;;;;;7507875;76;26808;-60
2022/08/23 20:31:16;;;;;;;6.92;2.92;;;26.00;77.70;;;;;;7555045;76;26419;-59
2022/08/23 20:41:19;;;;;;;6.25;2.70;;;25.90;77.70;;;;;;7547264;78;26347;-60
2022/08/23 20:51:22;;;;;;;8.28;2.85;;;25.80;78.20;;;;;;7522710;76;26838;-60
2022/08/23 21:01:24;;;;;;;8.63;3.00;;;25.80;78.30;;;;;;7530339;78;26316;-60
2022/08/23 21:11:28;;;;;;;5.50;3.17;;;25.80;78.70;;;;;;7602788;78;26969;-60
2022/08/23 21:21:31;;;;;;;6.17;2.65;;;25.80;78.80;;;;;;7611434;76;26277;-61
2022/08/23 21:31:34;;;;;;;12.55;3.42;;;25.70;79.00;;;;;;7617856;78;26325;-60
2022/08/23 21:41:39;;;;;;;15.25;3.22;;;25.70;80.20;;;;;;7616835;78;26320;-60
2022/08/23 21:51:44;;;;;;;8.75;2.87;;;25.60;80.50;;;;;;7617293;78;26327;-60
2022/08/23 22:01:46;;;;;;;9.25;2.95;;;25.60;80.30;;;;;;7595969;78;26254;-60
2022/08/23 22:11:52;;;;;;;11.80;2.80;;;25.50;79.00;;;;;;7613301;78;26842;-60
2022/08/23 22:21:53;;;;;;;10.72;3.12;;;25.50;80.40;;;;;;7590728;77;26274;-60
2022/08/23 22:31:56;;;;;;;8.18;3.60;;;25.50;80.60;;;;;;7586660;77;26258;-60
2022/08/23 22:41:59;;;;;;;8.23;3.47;;;25.40;80.30;;;;;;7584042;78;26289;-61
2022/08/23 22:52:01;;;;;;;7.15;3.20;;;25.40;80.00;;;;;;7588188;78;26294;-60
2022/08/23 23:02:04;;;;;;;8.55;3.08;;;25.40;80.40;;;;;;7582967;78;26334;-60
2022/08/23 23:12:06;;;;;;;9.73;2.83;;;25.30;79.80;;;;;;7582098;78;26355;-61
2022/08/23 23:22:09;;;;;;;10.13;3.22;;;25.40;80.10;;;;;;7584188;77;26267;-60
2022/08/23 23:32:11;;;;;;;9.15;2.98;;;25.30;80.30;;;;;;7580310;78;26270;-60
2022/08/23 23:42:14;;;;;;;8.73;3.40;;;25.30;80.10;;;;;;7579800;78;26321;-60
2022/08/23 23:52:16;;;;;;;4.83;2.70;;;25.30;80.00;;;;;;7588169;78;26293;-59
